New Orleans, Louisiana
Traffic Map
Current Weather Conditions
New Orleans, Louisiana
Few Clouds
Few Clouds
77°
Feels Like: 79°
Wind Chill: 77° Ceiling: Unl
Heat Index: 79° Visibility: 10mi
Dew Point: 68° Wind: 6mph
Humidity: 74% Direction: 180° (S)
Pressure: 30.06in Gusts: 0mph
Raw Report DataKNEW 261553Z AUTO 18005KT 10SM FEW049 25/20 A3006 RMK AO2 SLP174 T02500200
Traffic Incident Summary
Active as of:
Severity:
Category:
InformationThere was an issue retrieving the traffic information for this location. Please try a different location or try again shortly.
Advertisements
Track Severe Weather on mobile